sensor_id;sensor_type;location;lat;lon;timestamp;P1;durP1;ratioP1;P2;durP2;ratioP2
35326;SDS011;21436;52.348;20.928;2022-09-17T00:01:09;6.35;;;4.75;;
35326;SDS011;21436;52.348;20.928;2022-09-17T00:03:43;9.30;;;5.05;;
35326;SDS011;21436;52.348;20.928;2022-09-17T00:06:11;9.73;;;4.95;;
35326;SDS011;21436;52.348;20.928;2022-09-17T00:08:39;8.57;;;4.85;;
35326;SDS011;21436;52.348;20.928;2022-09-17T00:11:18;7.80;;;5.25;;
35326;SDS011;21436;52.348;20.928;2022-09-17T00:13:50;5.90;;;4.78;;
35326;SDS011;21436;52.348;20.928;2022-09-17T00:16:22;8.15;;;4.80;;
35326;SDS011;21436;52.348;20.928;2022-09-17T00:19:05;7.38;;;4.55;;
35326;SDS011;21436;52.348;20.928;2022-09-17T00:21:36;9.02;;;4.80;;
35326;SDS011;21436;52.348;20.928;2022-09-17T00:24:04;6.43;;;4.60;;
35326;SDS011;21436;52.348;20.928;2022-09-17T00:26:33;7.50;;;4.38;;
35326;SDS011;21436;52.348;20.928;2022-09-17T00:29:01;6.20;;;4.32;;
35326;SDS011;21436;52.348;20.928;2022-09-17T00:31:28;6.38;;;4.65;;
35326;SDS011;21436;52.348;20.928;2022-09-17T00:33:58;5.97;;;4.13;;
35326;SDS011;21436;52.348;20.928;2022-09-17T00:36:26;5.72;;;3.53;;
35326;SDS011;21436;52.348;20.928;2022-09-17T00:38:54;7.80;;;4.25;;
35326;SDS011;21436;52.348;20.928;2022-09-17T00:41:25;8.60;;;4.72;;
35326;SDS011;21436;52.348;20.928;2022-09-17T00:43:55;10.05;;;3.90;;
35326;SDS011;21436;52.348;20.928;2022-09-17T00:48:59;7.13;;;4.00;;
35326;SDS011;21436;52.348;20.928;2022-09-17T00:54:37;10.45;;;4.28;;
35326;SDS011;21436;52.348;20.928;2022-09-17T00:57:09;8.02;;;4.15;;
35326;SDS011;21436;52.348;20.928;2022-09-17T00:59:36;9.95;;;4.32;;
35326;SDS011;21436;52.348;20.928;2022-09-17T01:02:04;9.38;;;4.22;;
35326;SDS011;21436;52.348;20.928;2022-09-17T01:04:32;6.32;;;3.78;;
35326;SDS011;21436;52.348;20.928;2022-09-17T01:09:56;9.07;;;4.30;;
35326;SDS011;21436;52.348;20.928;2022-09-17T01:15:40;8.35;;;4.50;;
35326;SDS011;21436;52.348;20.928;2022-09-17T01:24:09;11.35;;;5.75;;
35326;SDS011;21436;52.348;20.928;2022-09-17T01:35:24;7.03;;;4.30;;
35326;SDS011;21436;52.348;20.928;2022-09-17T01:40:53;7.05;;;4.22;;
35326;SDS011;21436;52.348;20.928;2022-09-17T01:43:37;9.70;;;4.97;;
35326;SDS011;21436;52.348;20.928;2022-09-17T01:46:16;6.97;;;4.45;;
35326;SDS011;21436;52.348;20.928;2022-09-17T01:48:48;6.05;;;4.57;;
35326;SDS011;21436;52.348;20.928;2022-09-17T01:51:19;8.77;;;4.57;;
35326;SDS011;21436;52.348;20.928;2022-09-17T01:54:39;10.30;;;4.80;;
35326;SDS011;21436;52.348;20.928;2022-09-17T01:56:46;10.25;;;4.47;;
35326;SDS011;21436;52.348;20.928;2022-09-17T02:04:53;8.02;;;4.13;;
35326;SDS011;21436;52.348;20.928;2022-09-17T02:07:24;7.93;;;5.03;;
35326;SDS011;21436;52.348;20.928;2022-09-17T02:09:58;6.68;;;4.30;;
35326;SDS011;21436;52.348;20.928;2022-09-17T02:12:32;5.93;;;4.10;;
35326;SDS011;21436;52.348;20.928;2022-09-17T02:15:03;4.80;;;3.03;;
35326;SDS011;21436;52.348;20.928;2022-09-17T02:17:36;8.75;;;4.35;;
35326;SDS011;21436;52.348;20.928;2022-09-17T02:20:06;7.90;;;4.43;;
35326;SDS011;21436;52.348;20.928;2022-09-17T02:22:51;5.93;;;3.97;;
35326;SDS011;21436;52.348;20.928;2022-09-17T02:25:43;5.80;;;4.25;;
35326;SDS011;21436;52.348;20.928;2022-09-17T02:28:25;5.43;;;3.92;;
35326;SDS011;21436;52.348;20.928;2022-09-17T02:30:57;6.95;;;4.25;;
35326;SDS011;21436;52.348;20.928;2022-09-17T02:33:24;8.95;;;5.50;;
35326;SDS011;21436;52.348;20.928;2022-09-17T02:35:52;9.88;;;4.20;;
35326;SDS011;21436;52.348;20.928;2022-09-17T02:38:23;8.68;;;4.47;;
35326;SDS011;21436;52.348;20.928;2022-09-17T02:40:56;8.90;;;4.18;;
35326;SDS011;21436;52.348;20.928;2022-09-17T02:43:37;9.60;;;4.65;;
35326;SDS011;21436;52.348;20.928;2022-09-17T02:49:23;6.75;;;3.90;;
35326;SDS011;21436;52.348;20.928;2022-09-17T02:57:44;10.38;;;4.75;;
35326;SDS011;21436;52.348;20.928;2022-09-17T03:00:17;6.80;;;4.10;;
35326;SDS011;21436;52.348;20.928;2022-09-17T03:05:22;12.50;;;3.97;;
35326;SDS011;21436;52.348;20.928;2022-09-17T03:07:51;7.25;;;3.83;;
35326;SDS011;21436;52.348;20.928;2022-09-17T03:10:22;10.15;;;4.07;;
35326;SDS011;21436;52.348;20.928;2022-09-17T03:12:50;6.75;;;3.83;;
35326;SDS011;21436;52.348;20.928;2022-09-17T03:15:17;9.68;;;4.13;;
35326;SDS011;21436;52.348;20.928;2022-09-17T03:17:45;10.52;;;4.38;;
35326;SDS011;21436;52.348;20.928;2022-09-17T03:20:19;5.88;;;3.47;;
35326;SDS011;21436;52.348;20.928;2022-09-17T03:22:46;7.45;;;3.78;;
35326;SDS011;21436;52.348;20.928;2022-09-17T03:25:14;6.97;;;3.78;;
35326;SDS011;21436;52.348;20.928;2022-09-17T03:27:42;8.25;;;3.65;;
35326;SDS011;21436;52.348;20.928;2022-09-17T03:30:09;7.68;;;3.53;;
35326;SDS011;21436;52.348;20.928;2022-09-17T03:32:36;9.15;;;4.40;;
35326;SDS011;21436;52.348;20.928;2022-09-17T03:35:04;9.20;;;4.68;;
35326;SDS011;21436;52.348;20.928;2022-09-17T03:37:32;5.50;;;3.92;;
35326;SDS011;21436;52.348;20.928;2022-09-17T03:39:59;9.77;;;4.63;;
35326;SDS011;21436;52.348;20.928;2022-09-17T03:42:27;9.65;;;4.50;;
35326;SDS011;21436;52.348;20.928;2022-09-17T03:44:55;8.25;;;4.75;;
35326;SDS011;21436;52.348;20.928;2022-09-17T03:47:22;10.98;;;5.35;;
35326;SDS011;21436;52.348;20.928;2022-09-17T03:49:50;8.40;;;4.95;;
35326;SDS011;21436;52.348;20.928;2022-09-17T03:52:18;7.10;;;4.22;;
35326;SDS011;21436;52.348;20.928;2022-09-17T03:54:45;9.57;;;4.88;;
35326;SDS011;21436;52.348;20.928;2022-09-17T03:57:13;11.30;;;4.80;;
35326;SDS011;21436;52.348;20.928;2022-09-17T03:59:41;7.53;;;4.20;;
35326;SDS011;21436;52.348;20.928;2022-09-17T04:02:08;12.02;;;4.97;;
35326;SDS011;21436;52.348;20.928;2022-09-17T04:04:36;24.02;;;5.45;;
35326;SDS011;21436;52.348;20.928;2022-09-17T04:07:04;8.55;;;4.65;;
35326;SDS011;21436;52.348;20.928;2022-09-17T04:09:31;8.63;;;4.40;;
35326;SDS011;21436;52.348;20.928;2022-09-17T04:12:01;7.95;;;4.60;;
35326;SDS011;21436;52.348;20.928;2022-09-17T04:14:29;17.77;;;5.60;;
35326;SDS011;21436;52.348;20.928;2022-09-17T04:16:57;12.50;;;4.90;;
35326;SDS011;21436;52.348;20.928;2022-09-17T04:19:25;10.82;;;5.55;;
35326;SDS011;21436;52.348;20.928;2022-09-17T04:21:52;13.50;;;5.20;;
35326;SDS011;21436;52.348;20.928;2022-09-17T04:24:20;10.90;;;4.70;;
35326;SDS011;21436;52.348;20.928;2022-09-17T04:26:47;49.42;;;7.00;;
35326;SDS011;21436;52.348;20.928;2022-09-17T04:29:15;7.93;;;4.78;;
35326;SDS011;21436;52.348;20.928;2022-09-17T04:31:42;10.48;;;4.90;;
35326;SDS011;21436;52.348;20.928;2022-09-17T04:34:10;7.82;;;5.13;;
35326;SDS011;21436;52.348;20.928;2022-09-17T04:36:37;10.82;;;5.20;;
35326;SDS011;21436;52.348;20.928;2022-09-17T04:39:05;8.90;;;4.30;;
35326;SDS011;21436;52.348;20.928;2022-09-17T04:41:32;7.35;;;4.25;;
35326;SDS011;21436;52.348;20.928;2022-09-17T04:44:00;7.00;;;3.85;;
35326;SDS011;21436;52.348;20.928;2022-09-17T04:46:28;7.35;;;4.00;;
35326;SDS011;21436;52.348;20.928;2022-09-17T04:48:56;5.85;;;3.75;;
35326;SDS011;21436;52.348;20.928;2022-09-17T04:51:23;6.30;;;3.63;;
35326;SDS011;21436;52.348;20.928;2022-09-17T04:53:51;6.20;;;3.80;;
35326;SDS011;21436;52.348;20.928;2022-09-17T04:56:19;9.10;;;3.85;;
35326;SDS011;21436;52.348;20.928;2022-09-17T04:58:46;6.63;;;3.90;;
35326;SDS011;21436;52.348;20.928;2022-09-17T05:01:14;6.93;;;3.42;;
35326;SDS011;21436;52.348;20.928;2022-09-17T05:03:45;7.15;;;3.45;;
35326;SDS011;21436;52.348;20.928;2022-09-17T05:06:12;5.50;;;3.75;;
35326;SDS011;21436;52.348;20.928;2022-09-17T05:08:40;8.02;;;3.22;;
35326;SDS011;21436;52.348;20.928;2022-09-17T05:11:08;6.22;;;3.55;;
35326;SDS011;21436;52.348;20.928;2022-09-17T05:13:35;5.32;;;3.70;;
35326;SDS011;21436;52.348;20.928;2022-09-17T05:16:02;5.97;;;3.00;;
35326;SDS011;21436;52.348;20.928;2022-09-17T05:18:30;6.80;;;3.03;;
35326;SDS011;21436;52.348;20.928;2022-09-17T05:20:57;8.40;;;3.22;;
35326;SDS011;21436;52.348;20.928;2022-09-17T05:23:25;4.97;;;3.30;;
35326;SDS011;21436;52.348;20.928;2022-09-17T05:25:56;6.25;;;3.47;;
35326;SDS011;21436;52.348;20.928;2022-09-17T05:28:25;4.80;;;3.13;;
35326;SDS011;21436;52.348;20.928;2022-09-17T05:30:53;5.55;;;3.17;;
35326;SDS011;21436;52.348;20.928;2022-09-17T05:33:21;5.28;;;3.13;;
35326;SDS011;21436;52.348;20.928;2022-09-17T05:35:48;7.50;;;3.40;;
35326;SDS011;21436;52.348;20.928;2022-09-17T05:38:16;5.07;;;3.15;;
35326;SDS011;21436;52.348;20.928;2022-09-17T05:40:44;7.70;;;3.20;;
35326;SDS011;21436;52.348;20.928;2022-09-17T05:43:12;3.78;;;3.00;;
35326;SDS011;21436;52.348;20.928;2022-09-17T05:45:40;4.43;;;2.85;;
35326;SDS011;21436;52.348;20.928;2022-09-17T05:48:09;8.02;;;2.88;;
35326;SDS011;21436;52.348;20.928;2022-09-17T05:50:39;8.02;;;3.00;;
35326;SDS011;21436;52.348;20.928;2022-09-17T05:53:09;7.35;;;2.90;;
35326;SDS011;21436;52.348;20.928;2022-09-17T05:55:39;4.82;;;2.95;;
35326;SDS011;21436;52.348;20.928;2022-09-17T05:58:10;10.68;;;3.20;;
35326;SDS011;21436;52.348;20.928;2022-09-17T06:00:42;3.20;;;2.47;;
35326;SDS011;21436;52.348;20.928;2022-09-17T06:03:10;6.22;;;2.47;;
35326;SDS011;21436;52.348;20.928;2022-09-17T06:05:39;5.95;;;2.40;;
35326;SDS011;21436;52.348;20.928;2022-09-17T06:08:07;8.02;;;2.47;;
35326;SDS011;21436;52.348;20.928;2022-09-17T06:10:35;2.22;;;1.90;;
35326;SDS011;21436;52.348;20.928;2022-09-17T06:13:04;6.07;;;2.70;;
35326;SDS011;21436;52.348;20.928;2022-09-17T06:15:32;8.50;;;2.30;;
35326;SDS011;21436;52.348;20.928;2022-09-17T06:17:59;2.75;;;1.90;;
35326;SDS011;21436;52.348;20.928;2022-09-17T06:20:26;4.38;;;2.13;;
35326;SDS011;21436;52.348;20.928;2022-09-17T06:22:57;3.67;;;2.03;;
35326;SDS011;21436;52.348;20.928;2022-09-17T06:25:26;5.38;;;2.15;;
35326;SDS011;21436;52.348;20.928;2022-09-17T06:27:55;4.22;;;2.10;;
35326;SDS011;21436;52.348;20.928;2022-09-17T06:30:23;5.50;;;2.30;;
35326;SDS011;21436;52.348;20.928;2022-09-17T06:32:50;9.45;;;2.30;;
35326;SDS011;21436;52.348;20.928;2022-09-17T06:35:18;4.55;;;2.53;;
35326;SDS011;21436;52.348;20.928;2022-09-17T06:37:46;4.10;;;2.08;;
35326;SDS011;21436;52.348;20.928;2022-09-17T06:40:15;6.38;;;2.13;;
35326;SDS011;21436;52.348;20.928;2022-09-17T06:42:43;5.03;;;2.20;;
35326;SDS011;21436;52.348;20.928;2022-09-17T06:45:11;3.22;;;2.05;;
35326;SDS011;21436;52.348;20.928;2022-09-17T06:47:42;9.20;;;2.50;;
35326;SDS011;21436;52.348;20.928;2022-09-17T06:50:10;8.38;;;2.95;;
35326;SDS011;21436;52.348;20.928;2022-09-17T06:52:38;4.40;;;2.47;;
35326;SDS011;21436;52.348;20.928;2022-09-17T06:55:05;6.97;;;2.00;;
35326;SDS011;21436;52.348;20.928;2022-09-17T06:57:33;3.78;;;2.00;;
35326;SDS011;21436;52.348;20.928;2022-09-17T07:00:01;5.68;;;1.88;;
35326;SDS011;21436;52.348;20.928;2022-09-17T07:02:32;3.75;;;1.90;;
35326;SDS011;21436;52.348;20.928;2022-09-17T07:05:00;7.00;;;2.25;;
35326;SDS011;21436;52.348;20.928;2022-09-17T07:07:28;4.70;;;2.20;;
35326;SDS011;21436;52.348;20.928;2022-09-17T07:09:55;3.40;;;2.05;;
35326;SDS011;21436;52.348;20.928;2022-09-17T07:12:23;5.30;;;2.17;;
35326;SDS011;21436;52.348;20.928;2022-09-17T07:14:51;3.15;;;1.80;;
35326;SDS011;21436;52.348;20.928;2022-09-17T07:17:18;4.57;;;2.13;;
35326;SDS011;21436;52.348;20.928;2022-09-17T07:19:46;3.55;;;2.13;;
35326;SDS011;21436;52.348;20.928;2022-09-17T07:22:13;6.20;;;2.30;;
35326;SDS011;21436;52.348;20.928;2022-09-17T07:24:41;4.75;;;2.65;;
35326;SDS011;21436;52.348;20.928;2022-09-17T07:27:09;3.10;;;2.45;;
35326;SDS011;21436;52.348;20.928;2022-09-17T07:29:36;5.32;;;3.10;;
35326;SDS011;21436;52.348;20.928;2022-09-17T07:32:03;5.97;;;3.38;;
35326;SDS011;21436;52.348;20.928;2022-09-17T07:34:31;6.97;;;3.03;;
35326;SDS011;21436;52.348;20.928;2022-09-17T07:36:59;9.57;;;3.70;;
35326;SDS011;21436;52.348;20.928;2022-09-17T07:39:26;16.73;;;3.83;;
35326;SDS011;21436;52.348;20.928;2022-09-17T07:41:54;6.07;;;3.42;;
35326;SDS011;21436;52.348;20.928;2022-09-17T07:44:21;5.90;;;3.22;;
35326;SDS011;21436;52.348;20.928;2022-09-17T07:46:49;7.25;;;3.30;;
35326;SDS011;21436;52.348;20.928;2022-09-17T07:49:17;20.67;;;3.45;;
35326;SDS011;21436;52.348;20.928;2022-09-17T07:51:44;10.43;;;3.40;;
35326;SDS011;21436;52.348;20.928;2022-09-17T07:54:12;3.97;;;3.22;;
35326;SDS011;21436;52.348;20.928;2022-09-17T07:56:40;6.75;;;3.15;;
35326;SDS011;21436;52.348;20.928;2022-09-17T07:59:08;6.40;;;3.30;;
35326;SDS011;21436;52.348;20.928;2022-09-17T08:01:36;7.38;;;2.80;;
35326;SDS011;21436;52.348;20.928;2022-09-17T08:04:04;6.90;;;3.40;;
35326;SDS011;21436;52.348;20.928;2022-09-17T08:06:35;7.13;;;3.63;;
35326;SDS011;21436;52.348;20.928;2022-09-17T08:09:03;7.82;;;3.80;;
35326;SDS011;21436;52.348;20.928;2022-09-17T08:11:31;6.13;;;3.55;;
35326;SDS011;21436;52.348;20.928;2022-09-17T08:14:18;7.45;;;3.58;;
35326;SDS011;21436;52.348;20.928;2022-09-17T08:16:48;3.70;;;3.40;;
35326;SDS011;21436;52.348;20.928;2022-09-17T08:19:16;6.55;;;3.72;;
35326;SDS011;21436;52.348;20.928;2022-09-17T08:21:45;4.55;;;3.53;;
35326;SDS011;21436;52.348;20.928;2022-09-17T08:24:13;4.82;;;3.33;;
35326;SDS011;21436;52.348;20.928;2022-09-17T08:26:40;5.93;;;3.80;;
35326;SDS011;21436;52.348;20.928;2022-09-17T08:29:08;9.05;;;3.60;;
35326;SDS011;21436;52.348;20.928;2022-09-17T08:31:37;4.43;;;3.05;;
35326;SDS011;21436;52.348;20.928;2022-09-17T08:34:08;6.65;;;3.55;;
35326;SDS011;21436;52.348;20.928;2022-09-17T08:36:36;4.80;;;2.80;;
35326;SDS011;21436;52.348;20.928;2022-09-17T08:39:04;9.20;;;3.00;;
35326;SDS011;21436;52.348;20.928;2022-09-17T08:41:35;4.72;;;2.60;;
35326;SDS011;21436;52.348;20.928;2022-09-17T08:46:49;4.97;;;2.58;;
35326;SDS011;21436;52.348;20.928;2022-09-17T08:57:26;6.07;;;2.85;;
35326;SDS011;21436;52.348;20.928;2022-09-17T09:00:00;8.45;;;2.80;;
35326;SDS011;21436;52.348;20.928;2022-09-17T09:02:49;13.02;;;3.08;;
35326;SDS011;21436;52.348;20.928;2022-09-17T09:10:54;5.93;;;2.15;;
35326;SDS011;21436;52.348;20.928;2022-09-17T09:13:33;7.05;;;2.10;;
35326;SDS011;21436;52.348;20.928;2022-09-17T09:16:27;5.32;;;2.03;;
35326;SDS011;21436;52.348;20.928;2022-09-17T09:19:00;4.50;;;2.50;;
35326;SDS011;21436;52.348;20.928;2022-09-17T09:21:43;14.35;;;2.58;;
35326;SDS011;21436;52.348;20.928;2022-09-17T09:24:22;4.90;;;2.40;;
35326;SDS011;21436;52.348;20.928;2022-09-17T09:35:21;3.00;;;1.90;;
35326;SDS011;21436;52.348;20.928;2022-09-17T09:37:52;4.57;;;3.17;;
35326;SDS011;21436;52.348;20.928;2022-09-17T09:46:37;3.50;;;2.63;;
35326;SDS011;21436;52.348;20.928;2022-09-17T09:49:32;2.90;;;2.15;;
35326;SDS011;21436;52.348;20.928;2022-09-17T10:02:54;4.85;;;2.05;;
35326;SDS011;21436;52.348;20.928;2022-09-17T10:05:26;4.78;;;2.13;;
35326;SDS011;21436;52.348;20.928;2022-09-17T10:07:55;3.95;;;2.60;;
35326;SDS011;21436;52.348;20.928;2022-09-17T10:10:23;5.28;;;2.00;;
35326;SDS011;21436;52.348;20.928;2022-09-17T10:13:03;2.63;;;2.15;;
35326;SDS011;21436;52.348;20.928;2022-09-17T10:15:32;7.93;;;2.45;;
35326;SDS011;21436;52.348;20.928;2022-09-17T10:18:18;3.88;;;2.75;;
35326;SDS011;21436;52.348;20.928;2022-09-17T10:20:59;3.15;;;2.40;;
35326;SDS011;21436;52.348;20.928;2022-09-17T10:23:27;1.85;;;1.52;;
35326;SDS011;21436;52.348;20.928;2022-09-17T10:25:56;3.38;;;1.50;;
35326;SDS011;21436;52.348;20.928;2022-09-17T10:31:10;5.05;;;1.52;;
35326;SDS011;21436;52.348;20.928;2022-09-17T10:33:39;1.67;;;1.52;;
35326;SDS011;21436;52.348;20.928;2022-09-17T10:36:17;3.72;;;1.50;;
35326;SDS011;21436;52.348;20.928;2022-09-17T10:41:54;4.60;;;1.63;;
35326;SDS011;21436;52.348;20.928;2022-09-17T10:44:23;1.90;;;1.30;;
35326;SDS011;21436;52.348;20.928;2022-09-17T10:47:14;3.38;;;1.70;;
35326;SDS011;21436;52.348;20.928;2022-09-17T10:49:54;3.20;;;1.85;;
35326;SDS011;21436;52.348;20.928;2022-09-17T10:52:28;1.70;;;1.40;;
35326;SDS011;21436;52.348;20.928;2022-09-17T10:55:04;2.72;;;1.40;;
35326;SDS011;21436;52.348;20.928;2022-09-17T10:58:00;1.88;;;1.20;;
35326;SDS011;21436;52.348;20.928;2022-09-17T11:12:23;2.47;;;1.45;;
35326;SDS011;21436;52.348;20.928;2022-09-17T11:15:18;3.75;;;1.80;;
35326;SDS011;21436;52.348;20.928;2022-09-17T11:39:33;2.67;;;1.30;;
35326;SDS011;21436;52.348;20.928;2022-09-17T11:42:06;3.58;;;1.08;;
35326;SDS011;21436;52.348;20.928;2022-09-17T11:44:50;1.60;;;1.33;;
35326;SDS011;21436;52.348;20.928;2022-09-17T11:47:21;3.25;;;1.60;;
35326;SDS011;21436;52.348;20.928;2022-09-17T12:00:55;2.55;;;1.33;;
35326;SDS011;21436;52.348;20.928;2022-09-17T12:03:29;3.78;;;1.27;;
35326;SDS011;21436;52.348;20.928;2022-09-17T12:06:24;4.25;;;1.55;;
35326;SDS011;21436;52.348;20.928;2022-09-17T12:09:08;1.48;;;1.20;;
35326;SDS011;21436;52.348;20.928;2022-09-17T12:16:58;1.70;;;1.00;;
35326;SDS011;21436;52.348;20.928;2022-09-17T12:19:36;1.25;;;1.10;;
35326;SDS011;21436;52.348;20.928;2022-09-17T12:24:45;3.22;;;1.27;;
35326;SDS011;21436;52.348;20.928;2022-09-17T12:32:43;3.13;;;1.20;;
35326;SDS011;21436;52.348;20.928;2022-09-17T12:49:18;1.63;;;1.25;;
35326;SDS011;21436;52.348;20.928;2022-09-17T12:51:58;1.73;;;1.30;;
35326;SDS011;21436;52.348;20.928;2022-09-17T12:54:38;1.45;;;1.30;;
35326;SDS011;21436;52.348;20.928;2022-09-17T13:00:16;1.73;;;1.23;;
35326;SDS011;21436;52.348;20.928;2022-09-17T13:02:45;3.28;;;1.30;;
35326;SDS011;21436;52.348;20.928;2022-09-17T13:10:55;2.60;;;1.50;;
35326;SDS011;21436;52.348;20.928;2022-09-17T13:13:48;2.45;;;1.27;;
35326;SDS011;21436;52.348;20.928;2022-09-17T13:19:08;3.13;;;1.50;;
35326;SDS011;21436;52.348;20.928;2022-09-17T13:22:04;3.97;;;1.90;;
35326;SDS011;21436;52.348;20.928;2022-09-17T13:24:33;4.22;;;2.70;;
35326;SDS011;21436;52.348;20.928;2022-09-17T13:27:01;3.35;;;2.20;;
35326;SDS011;21436;52.348;20.928;2022-09-17T13:40:26;3.65;;;1.80;;
35326;SDS011;21436;52.348;20.928;2022-09-17T13:45:32;3.78;;;1.80;;
35326;SDS011;21436;52.348;20.928;2022-09-17T13:48:05;5.97;;;1.85;;
35326;SDS011;21436;52.348;20.928;2022-09-17T13:53:08;2.17;;;1.80;;
35326;SDS011;21436;52.348;20.928;2022-09-17T13:55:44;1.77;;;1.67;;
35326;SDS011;21436;52.348;20.928;2022-09-17T13:58:26;2.42;;;1.95;;
35326;SDS011;21436;52.348;20.928;2022-09-17T14:01:05;3.00;;;2.00;;
35326;SDS011;21436;52.348;20.928;2022-09-17T14:16:56;1.65;;;1.35;;
35326;SDS011;21436;52.348;20.928;2022-09-17T14:22:21;2.30;;;1.50;;
35326;SDS011;21436;52.348;20.928;2022-09-17T14:24:54;1.45;;;1.35;;
35326;SDS011;21436;52.348;20.928;2022-09-17T14:30:47;2.00;;;1.90;;
35326;SDS011;21436;52.348;20.928;2022-09-17T14:33:17;4.05;;;2.25;;
35326;SDS011;21436;52.348;20.928;2022-09-17T14:36:01;3.53;;;2.28;;
35326;SDS011;21436;52.348;20.928;2022-09-17T14:38:41;2.65;;;1.80;;
35326;SDS011;21436;52.348;20.928;2022-09-17T14:46:32;3.33;;;1.90;;
35326;SDS011;21436;52.348;20.928;2022-09-17T14:51:55;4.43;;;2.10;;
35326;SDS011;21436;52.348;20.928;2022-09-17T14:54:24;3.55;;;2.15;;
35326;SDS011;21436;52.348;20.928;2022-09-17T15:02:27;3.38;;;2.40;;
35326;SDS011;21436;52.348;20.928;2022-09-17T15:07:44;3.95;;;2.50;;
35326;SDS011;21436;52.348;20.928;2022-09-17T15:10:17;3.38;;;2.70;;
35326;SDS011;21436;52.348;20.928;2022-09-17T15:12:46;4.47;;;3.03;;
35326;SDS011;21436;52.348;20.928;2022-09-17T15:15:20;4.47;;;3.20;;
35326;SDS011;21436;52.348;20.928;2022-09-17T15:17:49;3.70;;;3.30;;
35326;SDS011;21436;52.348;20.928;2022-09-17T15:20:19;6.53;;;3.58;;
35326;SDS011;21436;52.348;20.928;2022-09-17T15:25:29;5.68;;;2.90;;
35326;SDS011;21436;52.348;20.928;2022-09-17T15:27:59;5.13;;;3.40;;
35326;SDS011;21436;52.348;20.928;2022-09-17T15:30:54;5.55;;;3.20;;
35326;SDS011;21436;52.348;20.928;2022-09-17T15:33:21;3.40;;;3.08;;
35326;SDS011;21436;52.348;20.928;2022-09-17T15:35:59;5.75;;;3.63;;
35326;SDS011;21436;52.348;20.928;2022-09-17T15:38:36;5.45;;;3.72;;
35326;SDS011;21436;52.348;20.928;2022-09-17T15:43:47;4.50;;;3.17;;
35326;SDS011;21436;52.348;20.928;2022-09-17T15:46:21;8.88;;;3.50;;
35326;SDS011;21436;52.348;20.928;2022-09-17T15:48:54;5.20;;;3.20;;
35326;SDS011;21436;52.348;20.928;2022-09-17T15:54:24;9.07;;;4.38;;
35326;SDS011;21436;52.348;20.928;2022-09-17T15:56:58;11.85;;;4.63;;
35326;SDS011;21436;52.348;20.928;2022-09-17T15:59:29;7.68;;;3.75;;
35326;SDS011;21436;52.348;20.928;2022-09-17T16:01:58;17.25;;;4.93;;
35326;SDS011;21436;52.348;20.928;2022-09-17T16:04:31;6.45;;;4.35;;
35326;SDS011;21436;52.348;20.928;2022-09-17T16:09:40;9.18;;;4.68;;
35326;SDS011;21436;52.348;20.928;2022-09-17T16:12:11;6.75;;;4.03;;
35326;SDS011;21436;52.348;20.928;2022-09-17T16:14:47;6.53;;;4.60;;
35326;SDS011;21436;52.348;20.928;2022-09-17T16:18:01;6.78;;;5.10;;
35326;SDS011;21436;52.348;20.928;2022-09-17T16:20:13;7.18;;;5.35;;
35326;SDS011;21436;52.348;20.928;2022-09-17T16:22:50;7.38;;;5.45;;
35326;SDS011;21436;52.348;20.928;2022-09-17T16:25:20;7.93;;;5.15;;
35326;SDS011;21436;52.348;20.928;2022-09-17T16:27:56;7.50;;;5.63;;
35326;SDS011;21436;52.348;20.928;2022-09-17T16:30:26;6.88;;;5.50;;
35326;SDS011;21436;52.348;20.928;2022-09-17T16:32:53;8.88;;;5.50;;
35326;SDS011;21436;52.348;20.928;2022-09-17T16:35:22;8.10;;;5.22;;
35326;SDS011;21436;52.348;20.928;2022-09-17T16:37:52;9.13;;;6.15;;
35326;SDS011;21436;52.348;20.928;2022-09-17T16:40:21;9.05;;;6.78;;
35326;SDS011;21436;52.348;20.928;2022-09-17T16:42:50;37.42;;;8.27;;
35326;SDS011;21436;52.348;20.928;2022-09-17T16:45:19;11.63;;;6.82;;
35326;SDS011;21436;52.348;20.928;2022-09-17T16:47:50;14.90;;;7.65;;
35326;SDS011;21436;52.348;20.928;2022-09-17T16:50:17;33.45;;;8.73;;
35326;SDS011;21436;52.348;20.928;2022-09-17T16:52:48;25.08;;;10.15;;
35326;SDS011;21436;52.348;20.928;2022-09-17T16:55:16;35.75;;;18.52;;
35326;SDS011;21436;52.348;20.928;2022-09-17T16:57:46;19.05;;;12.25;;
35326;SDS011;21436;52.348;20.928;2022-09-17T17:00:16;45.17;;;14.77;;
35326;SDS011;21436;52.348;20.928;2022-09-17T17:02:53;36.50;;;11.50;;
35326;SDS011;21436;52.348;20.928;2022-09-17T17:05:23;28.85;;;14.25;;
35326;SDS011;21436;52.348;20.928;2022-09-17T17:07:51;24.27;;;11.20;;
35326;SDS011;21436;52.348;20.928;2022-09-17T17:10:21;23.23;;;9.10;;
35326;SDS011;21436;52.348;20.928;2022-09-17T17:12:50;18.88;;;9.55;;
35326;SDS011;21436;52.348;20.928;2022-09-17T17:15:17;12.77;;;9.02;;
35326;SDS011;21436;52.348;20.928;2022-09-17T17:17:45;14.77;;;11.40;;
35326;SDS011;21436;52.348;20.928;2022-09-17T17:20:13;94.03;;;21.55;;
35326;SDS011;21436;52.348;20.928;2022-09-17T17:22:45;22.73;;;12.13;;
35326;SDS011;21436;52.348;20.928;2022-09-17T17:25:13;19.73;;;11.52;;
35326;SDS011;21436;52.348;20.928;2022-09-17T17:27:41;15.73;;;9.88;;
35326;SDS011;21436;52.348;20.928;2022-09-17T17:30:10;14.25;;;10.40;;
35326;SDS011;21436;52.348;20.928;2022-09-17T17:32:48;19.25;;;11.48;;
35326;SDS011;21436;52.348;20.928;2022-09-17T17:35:19;12.90;;;9.23;;
35326;SDS011;21436;52.348;20.928;2022-09-17T17:37:47;13.88;;;9.75;;
35326;SDS011;21436;52.348;20.928;2022-09-17T17:40:17;12.20;;;9.32;;
35326;SDS011;21436;52.348;20.928;2022-09-17T17:42:48;14.52;;;9.45;;
35326;SDS011;21436;52.348;20.928;2022-09-17T17:45:17;17.15;;;10.55;;
35326;SDS011;21436;52.348;20.928;2022-09-17T17:47:45;13.27;;;9.48;;
35326;SDS011;21436;52.348;20.928;2022-09-17T17:50:13;14.63;;;10.20;;
35326;SDS011;21436;52.348;20.928;2022-09-17T17:52:42;12.90;;;9.13;;
35326;SDS011;21436;52.348;20.928;2022-09-17T17:55:14;19.33;;;11.15;;
35326;SDS011;21436;52.348;20.928;2022-09-17T17:57:43;23.17;;;12.05;;
35326;SDS011;21436;52.348;20.928;2022-09-17T18:00:13;27.17;;;14.98;;
35326;SDS011;21436;52.348;20.928;2022-09-17T18:02:42;16.08;;;10.75;;
35326;SDS011;21436;52.348;20.928;2022-09-17T18:05:10;16.63;;;10.57;;
35326;SDS011;21436;52.348;20.928;2022-09-17T18:07:38;17.52;;;11.75;;
35326;SDS011;21436;52.348;20.928;2022-09-17T18:10:05;18.35;;;10.98;;
35326;SDS011;21436;52.348;20.928;2022-09-17T18:12:33;17.13;;;11.35;;
35326;SDS011;21436;52.348;20.928;2022-09-17T18:15:03;21.40;;;11.68;;
35326;SDS011;21436;52.348;20.928;2022-09-17T18:17:32;17.77;;;12.18;;
35326;SDS011;21436;52.348;20.928;2022-09-17T18:20:03;23.55;;;13.98;;
35326;SDS011;21436;52.348;20.928;2022-09-17T18:22:32;19.10;;;13.55;;
35326;SDS011;21436;52.348;20.928;2022-09-17T18:25:00;18.60;;;13.90;;
35326;SDS011;21436;52.348;20.928;2022-09-17T18:27:28;23.02;;;15.10;;
35326;SDS011;21436;52.348;20.928;2022-09-17T18:29:57;29.08;;;17.00;;
35326;SDS011;21436;52.348;20.928;2022-09-17T18:32:24;24.90;;;15.65;;
35326;SDS011;21436;52.348;20.928;2022-09-17T18:34:52;26.90;;;17.67;;
35326;SDS011;21436;52.348;20.928;2022-09-17T18:37:20;26.27;;;17.00;;
35326;SDS011;21436;52.348;20.928;2022-09-17T18:39:48;29.90;;;17.58;;
35326;SDS011;21436;52.348;20.928;2022-09-17T18:42:25;29.15;;;19.13;;
35326;SDS011;21436;52.348;20.928;2022-09-17T18:44:53;36.22;;;20.25;;
35326;SDS011;21436;52.348;20.928;2022-09-17T18:47:22;33.20;;;20.70;;
35326;SDS011;21436;52.348;20.928;2022-09-17T18:49:50;36.33;;;19.98;;
35326;SDS011;21436;52.348;20.928;2022-09-17T18:52:18;34.60;;;19.75;;
35326;SDS011;21436;52.348;20.928;2022-09-17T18:54:46;35.10;;;19.90;;